Dades meteomassalio
Diari Summary for Noviembre 28, 2017 Units:  English    Metric   Both
« Previous Day
Next Day »
Diari Semanal Mensual Anual Personalitzat
  Maxima: Minima: Mijana:
Temperatura: TemperatureC °F -6.1 °F 0.5 °F
Rosada: DewpointC °F -7.8 °F -4.2 °F
Humitat: Humidity % 46 % 72 %
Velocitat del vent: WindSpeedKMH mph 0.0 mph 2.9 mph
Racha vent: WindSpeedGustKMH mph - -
Vent:- - NW
Pressio: PressurehPa in 1015.1 in -
Pluja: 0.0 in    
Historical Graphs
 
 
Tabular Data for Noviembre 28, 2017
Time Temperature Dew Point Pressure Wind Wind Speed Wind Gust Humidity Rainfall Rate (Hourly) solar Conditions
TemperatureC °F DewpointC °F PressurehPa in Calm     Humidity % HourlyPrecipMM in SolarRadiationWatts/m^2 W/m2 Conditions
00:02 -2.8 °F -5.6 °F 1027.7 in Calm     81 % 0.0 in 0.0 W/m2 CLR
00:07 -2.8 °F -5.4 °F 1027.3 in Calm     82 % 0.0 in 0.0 W/m2 CLR
00:12 -2.8 °F -5.4 °F 1027.3 in Calm     82 % 0.0 in 0.0 W/m2 CLR
00:17 -2.8 °F -5.4 °F 1027.3 in Calm     82 % 0.0 in 0.0 W/m2 CLR
00:22 -3.3 °F -5.9 °F 1027.3 in Calm     82 % 0.0 in 0.0 W/m2 CLR
00:27 -3.3 °F -5.9 °F 1027.0 in Calm     82 % 0.0 in 0.0 W/m2 CLR
00:32 -3.3 °F -5.9 °F 1027.0 in Calm     82 % 0.0 in 0.0 W/m2 CLR
00:37 -2.8 °F -5.3 °F 1027.0 in Calm     83 % 0.0 in 0.0 W/m2 CLR
00:42 -2.8 °F -5.1 °F 1027.0 in Calm     84 % 0.0 in 0.0 W/m2 CLR
00:47 -2.8 °F -5.3 °F 1027.0 in Calm     83 % 0.0 in 0.0 W/m2 CLR
00:52 -2.8 °F -5.3 °F 1027.0 in Calm     83 % 0.0 in 0.0 W/m2 CLR
00:57 -2.8 °F -5.3 °F 1027.0 in Calm     83 % 0.0 in 0.0 W/m2 CLR
01:02 -3.3 °F -5.7 °F 1027.0 in Calm     84 % 0.0 in 0.0 W/m2 CLR
01:07 -3.3 °F -5.7 °F 1027.0 in Calm     84 % 0.0 in 0.0 W/m2 CLR
01:12 -3.3 °F -5.7 °F 1027.0 in Calm     84 % 0.0 in 0.0 W/m2 CLR
01:17 -3.3 °F -5.7 °F 1027.0 in Calm     84 % 0.0 in 0.0 W/m2 CLR
01:22 -3.3 °F -5.7 °F 1027.0 in Calm     84 % 0.0 in 0.0 W/m2 CLR
01:27 -3.3 °F -5.7 °F 1026.6 in Calm     84 % 0.0 in 0.0 W/m2 CLR
01:32 -3.3 °F -5.7 °F 1026.6 in Calm     84 % 0.0 in 0.0 W/m2 CLR
01:37 -3.3 °F -5.7 °F 1026.6 in Calm     84 % 0.0 in 0.0 W/m2 CLR
01:42 -3.3 °F -5.7 °F 1026.6 in Calm     84 % 0.0 in 0.0 W/m2 CLR
01:47 -3.3 °F -5.7 °F 1026.6 in Calm     84 % 0.0 in 0.0 W/m2 CLR
01:52 -3.3 °F -5.7 °F 1026.3 in Calm     84 % 0.0 in 0.0 W/m2 CLR
01:57 -3.3 °F -5.8 °F 1026.3 in Calm     83 % 0.0 in 0.0 W/m2 CLR
02:02 -3.3 °F -5.7 °F 1026.3 in Calm     84 % 0.0 in 0.0 W/m2 CLR
02:07 -3.3 °F -5.7 °F 1026.3 in Calm     84 % 0.0 in 0.0 W/m2 CLR
02:08 -3.3 °F -5.7 °F 1026.6 in Calm     84 % 0.0 in 0.0 W/m2 CLR
02:13 -3.3 °F -5.8 °F 1026.3 in Calm     83 % 0.0 in 0.0 W/m2 CLR
02:18 -3.3 °F -5.8 °F 1026.3 in Calm     83 % 0.0 in 0.0 W/m2 CLR
02:23 -3.3 °F -5.8 °F 1026.3 in Calm     83 % 0.0 in 0.0 W/m2 CLR
02:28 -3.3 °F -5.7 °F 1026.3 in Calm     84 % 0.0 in 0.0 W/m2 CLR
02:33 -3.3 °F -5.7 °F 1026.3 in Calm     84 % 0.0 in 0.0 W/m2 CLR
02:38 -3.3 °F -5.7 °F 1026.3 in Calm     84 % 0.0 in 0.0 W/m2 CLR
02:43 -3.9 °F -6.2 °F 1026.3 in Calm     84 % 0.0 in 0.0 W/m2 CLR
02:48 -3.9 °F -6.2 °F 1026.3 in Calm     84 % 0.0 in 0.0 W/m2 CLR
02:53 -3.9 °F -6.3 °F 1026.0 in Calm     83 % 0.0 in 0.0 W/m2 CLR
02:58 -3.9 °F -6.3 °F 1026.0 in Calm     83 % 0.0 in 0.0 W/m2 CLR
03:03 -3.9 °F -6.2 °F 1026.0 in Calm     84 % 0.0 in 0.0 W/m2 CLR
03:08 -4.4 °F -6.6 °F 1026.0 in Calm     85 % 0.0 in 0.0 W/m2 CLR
03:13 -4.4 °F -6.6 °F 1026.0 in Calm     85 % 0.0 in 0.0 W/m2 CLR
03:19 -4.4 °F -6.6 °F 1026.0 in Calm     85 % 0.0 in 0.0 W/m2 CLR
03:24 -4.4 °F -6.4 °F 1025.6 in Calm     86 % 0.0 in 0.0 W/m2 CLR
03:29 -4.4 °F -6.4 °F 1026.0 in Calm     86 % 0.0 in 0.0 W/m2 CLR
03:34 -4.4 °F -6.4 °F 1025.6 in Calm     86 % 0.0 in 0.0 W/m2 CLR
03:39 -4.4 °F -6.4 °F 1025.6 in Calm     86 % 0.0 in 0.0 W/m2 CLR
03:44 -4.4 °F -6.4 °F 1025.6 in Calm     86 % 0.0 in 0.0 W/m2 CLR
03:49 -4.4 °F -6.6 °F 1025.3 in Calm     85 % 0.0 in 0.0 W/m2 CLR
03:54 -4.4 °F -6.4 °F 1025.3 in Calm     86 % 0.0 in 0.0 W/m2 CLR
03:59 -4.4 °F -6.4 °F 1025.3 in Calm     86 % 0.0 in 0.0 W/m2 CLR
04:04 -4.4 °F -6.4 °F 1025.3 in Calm     86 % 0.0 in 0.0 W/m2 CLR
04:09 -4.4 °F -6.4 °F 1024.9 in Calm     86 % 0.0 in 0.0 W/m2 CLR
04:14 -5.0 °F -7.0 °F 1024.9 in Calm     86 % 0.0 in 0.0 W/m2 CLR
04:19 -5.0 °F -7.0 °F 1024.9 in Calm     86 % 0.0 in 0.0 W/m2 CLR
04:24 -5.0 °F -7.0 °F 1024.9 in Calm     86 % 0.0 in 0.0 W/m2 CLR
04:29 -5.0 °F -6.8 °F 1024.6 in Calm     87 % 0.0 in 0.0 W/m2 CLR
04:34 -5.0 °F -6.8 °F 1024.6 in Calm     87 % 0.0 in 0.0 W/m2 CLR
04:39 -5.0 °F -6.8 °F 1024.3 in Calm     87 % 0.0 in 0.0 W/m2 CLR
04:44 -5.0 °F -6.8 °F 1024.3 in Calm     87 % 0.0 in 0.0 W/m2 CLR
04:49 -5.0 °F -6.8 °F 1024.3 in Calm     87 % 0.0 in 0.0 W/m2 CLR
04:54 -5.0 °F -7.0 °F 1024.3 in Calm     86 % 0.0 in 0.0 W/m2 CLR
04:59 -5.0 °F -7.0 °F 1024.3 in Calm     86 % 0.0 in 0.0 W/m2 CLR
05:04 -5.0 °F -6.8 °F 1024.3 in Calm     87 % 0.0 in 0.0 W/m2 CLR
05:09 -5.0 °F -6.7 °F 1024.3 in Calm     88 % 0.0 in 0.0 W/m2 CLR
05:14 -5.0 °F -6.7 °F 1023.9 in Calm     88 % 0.0 in 0.0 W/m2 CLR
05:19 -5.0 °F -6.7 °F 1024.3 in Calm     88 % 0.0 in 0.0 W/m2 CLR
05:24 -5.0 °F -6.8 °F 1024.3 in Calm     87 % 0.0 in 0.0 W/m2 CLR
05:29 -5.0 °F -6.8 °F 1024.3 in Calm     87 % 0.0 in 0.0 W/m2 CLR
05:34 -5.0 °F -6.8 °F 1024.3 in Calm     87 % 0.0 in 0.0 W/m2 CLR
05:39 -4.4 °F -6.3 °F 1024.3 in Calm     87 % 0.0 in 0.0 W/m2 CLR
05:44 -4.4 °F -6.1 °F 1024.3 in Calm     88 % 0.0 in 0.0 W/m2 CLR
05:49 -4.4 °F -6.1 °F 1024.3 in Calm     88 % 0.0 in 0.0 W/m2 CLR
05:54 -4.4 °F -6.1 °F 1024.3 in Calm     88 % 0.0 in 0.0 W/m2 CLR
05:59 -4.4 °F -6.1 °F 1024.3 in Calm     88 % 0.0 in 0.0 W/m2 CLR
06:04 -4.4 °F -6.1 °F 1024.3 in Calm     88 % 0.0 in 0.0 W/m2 CLR
06:09 -4.4 °F -6.1 °F 1024.3 in Calm     88 % 0.0 in 0.0 W/m2 CLR
06:14 -5.0 °F -6.7 °F 1024.3 in Calm     88 % 0.0 in 0.0 W/m2 CLR
06:19 -5.0 °F -6.7 °F 1024.3 in Calm     88 % 0.0 in 0.0 W/m2 CLR
06:24 -5.0 °F -6.7 °F 1024.3 in Calm     88 % 0.0 in 0.0 W/m2 CLR
06:29 -5.0 °F -6.7 °F 1024.3 in Calm     88 % 0.0 in 0.0 W/m2 CLR
06:34 -5.6 °F -7.2 °F 1024.3 in Calm     88 % 0.0 in 0.0 W/m2 CLR
06:39 -5.6 °F -7.2 °F 1024.3 in Calm     88 % 0.0 in 0.0 W/m2 CLR
06:44 -5.6 °F -7.2 °F 1024.3 in Calm     88 % 0.0 in 0.0 W/m2 CLR
06:49 -5.6 °F -7.2 °F 1024.3 in Calm     88 % 0.0 in 0.0 W/m2 CLR
06:54 -5.6 °F -7.2 °F 1024.3 in Calm     88 % 0.0 in 0.0 W/m2 CLR
06:59 -5.6 °F -7.2 °F 1024.3 in Calm     88 % 0.0 in 0.0 W/m2 CLR
07:04 -6.1 °F -7.6 °F 1023.9 in Calm     89 % 0.0 in 0.0 W/m2 CLR
07:09 -6.1 °F -7.8 °F 1023.9 in Calm     88 % 0.0 in 0.0 W/m2 CLR
07:14 -5.6 °F -7.2 °F 1023.9 in Calm     88 % 0.0 in 0.0 W/m2 CLR
07:19 -5.6 °F -7.2 °F 1023.9 in Calm     88 % 0.0 in 0.0 W/m2 CLR
07:24 -5.6 °F -7.2 °F 1023.9 in Calm     88 % 0.0 in 0.0 W/m2 CLR
07:29 -5.6 °F -7.2 °F 1023.9 in Calm     88 % 0.0 in 0.0 W/m2 CLR
07:34 -5.6 °F -7.1 °F 1023.9 in Calm     89 % 0.0 in 0.0 W/m2 CLR
07:39 -5.6 °F -7.1 °F 1023.9 in Calm     89 % 0.0 in 0.0 W/m2 CLR
07:44 -5.6 °F -7.1 °F 1023.9 in Calm     89 % 0.0 in 0.0 W/m2 CLR
07:49 -5.6 °F -7.1 °F 1023.9 in Calm     89 % 0.0 in 0.0 W/m2 CLR
07:54 -5.6 °F -7.2 °F 1023.9 in Calm     88 % 0.0 in 0.0 W/m2 CLR
07:59 -5.6 °F -7.1 °F 1023.9 in Calm     89 % 0.0 in 0.0 W/m2 CLR
08:04 -5.6 °F -7.2 °F 1024.3 in Calm     88 % 0.0 in 5.0 W/m2 OVC
08:09 -5.6 °F -7.1 °F 1024.3 in Calm     89 % 0.0 in 7.0 W/m2 OVC
08:14 -5.6 °F -7.1 °F 1024.3 in Calm     89 % 0.0 in 9.0 W/m2 BKN
08:19 -5.6 °F -7.1 °F 1024.3 in Calm     89 % 0.0 in 11.0 W/m2 BKN
08:24 -5.6 °F -7.2 °F 1024.3 in Calm     88 % 0.0 in 12.0 W/m2 BKN
08:29 -6.1 °F -7.8 °F 1023.9 in Calm     88 % 0.0 in 16.0 W/m2 BKN
08:34 -5.6 °F -7.1 °F 1024.3 in Calm     89 % 0.0 in 21.0 W/m2 BKN
08:39 -5.6 °F -7.1 °F 1023.9 in Calm     89 % 0.0 in 23.0 W/m2 BKN
08:44 -5.6 °F -7.2 °F 1023.9 in Calm     88 % 0.0 in 44.0 W/m2 BKN
08:49 -5.6 °F -7.1 °F 1023.9 in Calm     89 % 0.0 in 44.0 W/m2 BKN
08:54 -5.6 °F -7.2 °F 1023.9 in Calm     88 % 0.0 in 65.0 W/m2 SCT
08:59 -5.6 °F -7.2 °F 1023.9 in Calm     88 % 0.0 in 74.0 W/m2 FEW
09:04 -5.6 °F -7.4 °F 1024.3 in Calm     87 % 0.0 in 76.0 W/m2 FEW
09:09 -5.0 °F -6.8 °F 1024.3 in Calm     87 % 0.0 in 32.0 W/m2 FEW
09:14 -5.0 °F -7.0 °F 1024.3 in Calm     86 % 0.0 in 25.0 W/m2 BKN
09:19 -5.0 °F -7.1 °F 1023.9 in Calm     85 % 0.0 in 26.0 W/m2 BKN
09:24 -4.4 °F -6.6 °F 1024.3 in Calm     85 % 0.0 in 102.0 W/m2 BKN
09:29 -4.4 °F -6.4 °F 1024.3 in Calm     86 % 0.0 in 130.0 W/m2 SCT
09:34 -4.4 °F -6.4 °F 1024.3 in Calm     86 % 0.0 in 118.0 W/m2 CLR
09:39 -3.9 °F -5.9 °F 1024.3 in Calm     86 % 0.0 in 186.0 W/m2 CLR
09:45 -3.9 °F -5.9 °F 1023.9 in Calm     86 % 0.0 in 135.0 W/m2 CLR
09:50 -3.3 °F -5.7 °F 1023.9 in Calm     84 % 0.0 in 204.0 W/m2 CLR
09:55 -3.3 °F -5.8 °F 1023.9 in Calm     83 % 0.0 in 169.0 W/m2 CLR
10:00 -2.8 °F -5.3 °F 1023.9 in Calm     83 % 0.0 in 246.0 W/m2 CLR
10:05 -2.2 °F -4.9 °F 1023.9 in Calm     82 % 0.0 in 257.0 W/m2 CLR
10:10 -2.2 °F -5.4 °F 1023.9 in Calm     79 % 0.0 in 269.0 W/m2 CLR
10:15 -1.7 °F -5.0 °F 1023.9 in Calm     78 % 0.0 in 279.0 W/m2 CLR
10:20 -1.7 °F -5.2 °F 1023.9 in Calm     77 % 0.0 in 288.0 W/m2 CLR
10:25 -1.1 °F -5.0 °F 1023.9 in Calm     75 % 0.0 in 301.0 W/m2 CLR
10:30 -0.6 °F -4.4 °F 1023.9 in Calm     75 % 0.0 in 309.0 W/m2 CLR
10:35 0.0 °F -4.1 °F 1023.9 in Calm     74 % 0.0 in 320.0 W/m2 CLR
10:40 0.6 °F -3.7 °F 1023.9 in Calm     73 % 0.0 in 329.0 W/m2 CLR
10:45 1.1 °F -3.4 °F 1023.9 in Calm     72 % 0.0 in 339.0 W/m2 CLR
10:50 1.7 °F -3.1 °F 1023.9 in Calm     71 % 0.0 in 348.0 W/m2 CLR
10:55 2.8 °F -2.2 °F 1023.6 in Calm     70 % 0.0 in 355.0 W/m2 CLR
11:00 3.3 °F -2.0 °F 1023.6 in Calm     68 % 0.0 in 364.0 W/m2 CLR
11:05 3.9 °F -1.7 °F 1023.6 in Calm     67 % 0.0 in 373.0 W/m2 CLR
11:10 4.4 °F -1.2 °F 1023.6 in Calm     67 % 0.0 in 380.0 W/m2 CLR
11:15 4.4 °F -1.6 °F 1023.6 in Calm     65 % 0.0 in 387.0 W/m2 CLR
11:20 5.0 °F -1.3 °F 1023.2 in Calm     64 % 0.0 in 392.0 W/m2 CLR
11:25 5.6 °F -1.2 °F 1023.2 in Calm     62 % 0.0 in 397.0 W/m2 CLR
11:30 5.6 °F -2.1 °F 1023.2 in NNW 3.2 mph 3.2 mph 58 % 0.0 in 406.0 W/m2 CLR
11:35 6.1 °F -2.5 °F 1023.2 in NNW 13.0 mph 13.0 mph 54 % 0.0 in 411.0 W/m2 CLR
11:40 6.7 °F -2.5 °F 1022.9 in NW 18.5 mph 18.5 mph 52 % 0.0 in 415.0 W/m2 CLR
11:45 7.8 °F -1.2 °F 1022.9 in NW 14.8 mph 14.8 mph 53 % 0.0 in 420.0 W/m2 CLR
11:50 8.9 °F -0.7 °F 1022.6 in NW 14.8 mph 14.8 mph 51 % 0.0 in 425.0 W/m2 CLR
11:55 8.9 °F -0.4 °F 1022.6 in North 14.5 mph 14.5 mph 52 % 0.0 in 429.0 W/m2 CLR
12:00 9.4 °F -0.2 °F 1022.6 in North 20.4 mph 20.4 mph 51 % 0.0 in 434.0 W/m2 CLR
12:05 9.4 °F -0.2 °F 1022.2 in NNW 16.7 mph 16.7 mph 51 % 0.0 in 438.0 W/m2 CLR
12:10 10.0 °F 0.1 °F 1022.2 in NNW 19.3 mph 19.3 mph 50 % 0.0 in 441.0 W/m2 CLR
12:15 10.0 °F 0.3 °F 1022.2 in NNW 16.7 mph 16.7 mph 51 % 0.0 in 445.0 W/m2 CLR
12:20 10.0 °F 0.3 °F 1021.9 in NNW 16.7 mph 16.7 mph 51 % 0.0 in 446.0 W/m2 CLR
12:25 10.0 °F 0.3 °F 1021.9 in NNW 16.7 mph 16.7 mph 51 % 0.0 in 450.0 W/m2 CLR
12:30 10.6 °F 0.6 °F 1021.9 in NW 22.2 mph 22.2 mph 50 % 0.0 in 450.0 W/m2 CLR
12:35 10.6 °F 0.3 °F 1021.9 in NW 18.5 mph 18.5 mph 49 % 0.0 in 454.0 W/m2 CLR
12:40 10.6 °F 0.3 °F 1021.6 in NNW 19.3 mph 19.3 mph 49 % 0.0 in 454.0 W/m2 CLR
12:45 10.6 °F 0.3 °F 1021.6 in NNW 18.5 mph 18.5 mph 49 % 0.0 in 454.0 W/m2 CLR
12:55 10.6 °F 0.3 °F 1021.2 in NW 13.0 mph 13.0 mph 49 % 0.0 in 454.0 W/m2 CLR
13:00 10.6 °F 0.3 °F 1021.2 in NNW 17.7 mph 17.7 mph 49 % 0.0 in 454.0 W/m2 CLR
13:05 10.6 °F 0.3 °F 1021.2 in NW 18.5 mph 18.5 mph 49 % 0.0 in 452.0 W/m2 CLR
13:15 11.1 °F 0.8 °F 1020.9 in NNE 14.8 mph 14.8 mph 49 % 0.0 in 450.0 W/m2 CLR
13:25 11.1 °F 0.5 °F 1020.5 in NW 11.3 mph 11.3 mph 48 % 0.0 in 445.0 W/m2 CLR
13:30 11.7 °F 0.7 °F 1020.5 in NW 11.1 mph 11.1 mph 47 % 0.0 in 441.0 W/m2 CLR
13:50 11.7 °F 1.0 °F 1019.9 in North 14.8 mph 14.8 mph 48 % 0.0 in 424.0 W/m2 CLR
13:55 11.7 °F 1.0 °F 1019.9 in North 16.7 mph 16.7 mph 48 % 0.0 in 420.0 W/m2 CLR
14:00 11.7 °F 0.7 °F 1019.9 in North 16.1 mph 16.1 mph 47 % 0.0 in 399.0 W/m2 CLR
14:05 12.2 °F 1.5 °F 1019.5 in NW 18.5 mph 18.5 mph 48 % 0.0 in 410.0 W/m2 CLR
14:20 11.7 °F 1.0 °F 1019.2 in NNE 14.8 mph 14.8 mph 48 % 0.0 in 373.0 W/m2 CLR
14:30 11.1 °F 0.5 °F 1019.2 in NNE 11.1 mph 11.1 mph 48 % 0.0 in 376.0 W/m2 CLR
14:35 11.7 °F 1.0 °F 1019.2 in Calm     48 % 0.0 in 371.0 W/m2 CLR
14:40 11.7 °F 1.0 °F 1018.8 in Calm     48 % 0.0 in 350.0 W/m2 CLR
14:45 11.7 °F 1.0 °F 1018.8 in NW 9.3 mph   48 % 0.0 in 341.0 W/m2 CLR
14:50 11.7 °F 1.0 °F 1018.8 in NNE 12.9 mph 12.9 mph 48 % 0.0 in 341.0 W/m2 CLR
14:55 12.2 °F 1.2 °F 1018.8 in NNW 18.5 mph 18.5 mph 47 % 0.0 in 330.0 W/m2 CLR
15:00 11.7 °F 0.7 °F 1018.8 in NNW 16.7 mph 16.7 mph 47 % 0.0 in 313.0 W/m2 CLR
15:05 12.2 °F 1.2 °F 1018.8 in North 18.5 mph 18.5 mph 47 % 0.0 in 308.0 W/m2 CLR
15:10 12.2 °F 0.9 °F 1018.8 in NNW 16.1 mph 16.1 mph 46 % 0.0 in 304.0 W/m2 CLR
15:15 12.2 °F 0.9 °F 1018.5 in North 13.0 mph 13.0 mph 46 % 0.0 in 279.0 W/m2 CLR
15:20 12.2 °F 0.9 °F 1018.5 in NW 18.5 mph 18.5 mph 46 % 0.0 in 278.0 W/m2 CLR
15:25 12.2 °F 0.9 °F 1018.5 in NNW 9.3 mph 9.3 mph 46 % 0.0 in 267.0 W/m2 CLR
15:30 12.2 °F 1.2 °F 1018.2 in North 9.3 mph 9.3 mph 47 % 0.0 in 258.0 W/m2 CLR
15:35 12.2 °F 1.2 °F 1018.2 in NW 13.0 mph 13.0 mph 47 % 0.0 in 255.0 W/m2 CLR
15:45 12.2 °F 1.2 °F 1018.2 in NW 18.5 mph 18.5 mph 47 % 0.0 in 223.0 W/m2 CLR
15:50 11.7 °F 0.7 °F 1017.8 in NW 16.7 mph 16.7 mph 47 % 0.0 in 211.0 W/m2 CLR
15:55 11.7 °F 0.7 °F 1017.8 in NNW 7.4 mph 7.4 mph 47 % 0.0 in 195.0 W/m2 CLR
16:00 11.7 °F 0.4 °F 1017.8 in NW 18.5 mph 18.5 mph 46 % 0.0 in 183.0 W/m2 CLR
16:05 11.1 °F -0.1 °F 1017.8 in NW 14.8 mph 14.8 mph 46 % 0.0 in 169.0 W/m2 CLR
16:11 11.1 °F 0.2 °F 1017.8 in NW 14.8 mph 14.8 mph 47 % 0.0 in 155.0 W/m2 CLR
16:21 11.1 °F -0.1 °F 1017.8 in NW 14.8 mph 14.8 mph 46 % 0.0 in 90.0 W/m2 CLR
16:26 10.6 °F -0.6 °F 1017.8 in NNW 13.0 mph 13.0 mph 46 % 0.0 in 39.0 W/m2 FEW
16:31 10.6 °F -0.3 °F 1017.5 in NW 11.3 mph 11.3 mph 47 % 0.0 in 33.0 W/m2 SCT
16:36 10.6 °F -0.6 °F 1017.5 in NNW 8.0 mph 8.0 mph 46 % 0.0 in 86.0 W/m2 CLR
16:37 10.0 °F -1.1 °F 1017.5 in NW 5.6 mph   46 % 0.0 in 79.0 W/m2 FEW
16:42 9.4 °F -1.6 °F 1017.5 in Calm     46 % 0.0 in 49.0 W/m2 BKN
16:47 9.4 °F -1.6 °F 1017.5 in Calm     46 % 0.0 in 26.0 W/m2 BKN
16:52 8.9 °F -1.8 °F 1017.5 in Calm     47 % 0.0 in 18.0 W/m2 BKN
16:57 8.3 °F -2.3 °F 1017.5 in Calm     47 % 0.0 in 16.0 W/m2 BKN
17:02 7.8 °F -2.6 °F 1017.2 in Calm     48 % 0.0 in 12.0 W/m2 BKN
17:07 7.2 °F -3.1 °F 1017.5 in Calm     48 % 0.0 in 11.0 W/m2 BKN
17:17 6.7 °F -2.8 °F 1017.2 in Calm     51 % 0.0 in 7.0 W/m2 BKN
17:22 6.1 °F -3.0 °F 1017.2 in Calm     52 % 0.0 in 5.0 W/m2 BKN
17:27 6.1 °F -2.8 °F 1017.2 in Calm     53 % 0.0 in 5.0 W/m2 OVC
17:32 6.1 °F -2.8 °F 1017.2 in Calm     53 % 0.0 in 0.0 W/m2 OVC
17:42 5.6 °F -3.6 °F 1016.8 in Calm     52 % 0.0 in 0.0 W/m2 CLR
17:47 5.0 °F -3.6 °F 1016.8 in Calm     54 % 0.0 in 0.0 W/m2 CLR
17:57 4.4 °F -3.3 °F 1017.2 in Calm     57 % 0.0 in 0.0 W/m2 CLR
18:02 4.4 °F -3.3 °F 1017.2 in Calm     57 % 0.0 in 0.0 W/m2 CLR
18:18 3.9 °F -3.2 °F 1016.8 in Calm     60 % 0.0 in 0.0 W/m2 CLR
18:23 3.9 °F -3.2 °F 1016.8 in Calm     60 % 0.0 in 0.0 W/m2 CLR
18:33 3.3 °F -3.3 °F 1017.2 in Calm     62 % 0.0 in 0.0 W/m2 CLR
18:43 2.8 °F -3.6 °F 1016.8 in Calm     63 % 0.0 in 0.0 W/m2 CLR
18:48 2.2 °F -3.9 °F 1016.8 in Calm     64 % 0.0 in 0.0 W/m2 CLR
18:58 1.7 °F -4.2 °F 1016.8 in Calm     65 % 0.0 in 0.0 W/m2 CLR
19:03 1.1 °F -4.7 °F 1017.2 in Calm     65 % 0.0 in 0.0 W/m2 CLR
19:08 1.1 °F -4.7 °F 1017.2 in Calm     65 % 0.0 in 0.0 W/m2 CLR
19:18 0.6 °F -5.1 °F 1017.2 in Calm     66 % 0.0 in 0.0 W/m2 CLR
19:28 0.6 °F -4.9 °F 1017.2 in Calm     67 % 0.0 in 0.0 W/m2 CLR
19:38 0.6 °F -4.7 °F 1017.2 in Calm     68 % 0.0 in 0.0 W/m2 CLR
19:43 0.0 °F -5.0 °F 1017.2 in Calm     69 % 0.0 in 0.0 W/m2 CLR
19:48 0.6 °F -4.5 °F 1016.8 in Calm     69 % 0.0 in 0.0 W/m2 CLR
19:53 0.6 °F -4.5 °F 1016.8 in Calm     69 % 0.0 in 0.0 W/m2 CLR
19:54 0.6 °F -4.5 °F 1016.8 in Calm     69 % 0.0 in 0.0 W/m2 CLR
19:59 0.0 °F -4.8 °F 1016.8 in Calm     70 % 0.0 in 0.0 W/m2 CLR
20:04 0.0 °F -4.6 °F 1016.8 in Calm     71 % 0.0 in 0.0 W/m2 CLR
20:09 0.0 °F -4.4 °F 1016.8 in Calm     72 % 0.0 in 0.0 W/m2 CLR
20:14 0.0 °F -4.4 °F 1016.8 in Calm     72 % 0.0 in 0.0 W/m2 CLR
20:19 0.0 °F -4.4 °F 1016.8 in Calm     72 % 0.0 in 0.0 W/m2 CLR
20:24 -0.6 °F -5.0 °F 1016.8 in Calm     72 % 0.0 in 0.0 W/m2 CLR
20:29 -0.6 °F -5.0 °F 1016.8 in Calm     72 % 0.0 in 0.0 W/m2 CLR
20:34 -0.6 °F -4.8 °F 1016.8 in Calm     73 % 0.0 in 0.0 W/m2 CLR
20:49 -1.1 °F -5.2 °F 1016.5 in Calm     74 % 0.0 in 0.0 W/m2 CLR
20:59 -1.1 °F -5.0 °F 1016.5 in Calm     75 % 0.0 in 0.0 W/m2 CLR
21:04 -1.1 °F -5.0 °F 1016.5 in Calm     75 % 0.0 in 0.0 W/m2 CLR
21:09 -1.1 °F -5.0 °F 1016.1 in Calm     75 % 0.0 in 0.0 W/m2 CLR
21:14 -1.1 °F -5.2 °F 1016.5 in Calm     74 % 0.0 in 0.0 W/m2 CLR
21:29 -1.7 °F -5.5 °F 1016.1 in Calm     75 % 0.0 in 0.0 W/m2 CLR
21:34 -1.7 °F -5.5 °F 1016.1 in Calm     75 % 0.0 in 0.0 W/m2 CLR
21:39 -1.7 °F -5.3 °F 1016.1 in Calm     76 % 0.0 in 0.0 W/m2 CLR
21:44 -1.7 °F -5.3 °F 1016.1 in Calm     76 % 0.0 in 0.0 W/m2 CLR
21:49 -1.7 °F -5.3 °F 1015.8 in Calm     76 % 0.0 in 0.0 W/m2 CLR
21:54 -1.1 °F -4.8 °F 1015.8 in Calm     76 % 0.0 in 0.0 W/m2 CLR
21:59 -1.1 °F -5.0 °F 1015.8 in Calm     75 % 0.0 in 0.0 W/m2 CLR
22:09 -1.1 °F -5.0 °F 1015.8 in Calm     75 % 0.0 in 0.0 W/m2 CLR
22:29 -1.1 °F -4.8 °F 1015.8 in Calm     76 % 0.0 in 0.0 W/m2 CLR
22:34 -1.1 °F -4.8 °F 1015.8 in Calm     76 % 0.0 in 0.0 W/m2 CLR
22:39 -0.6 °F -4.1 °F 1015.8 in Calm     77 % 0.0 in 0.0 W/m2 CLR
22:44 -0.6 °F -3.9 °F 1015.8 in Calm     78 % 0.0 in 0.0 W/m2 CLR
22:49 -0.6 °F -4.1 °F 1015.8 in Calm     77 % 0.0 in 0.0 W/m2 CLR
22:54 -0.6 °F -4.1 °F 1015.8 in Calm     77 % 0.0 in 0.0 W/m2 CLR
23:04 0.0 °F -3.7 °F 1015.5 in Calm     76 % 0.0 in 0.0 W/m2 CLR
23:09 0.0 °F -3.7 °F 1015.5 in Calm     76 % 0.0 in 0.0 W/m2 CLR
23:14 0.6 °F -3.2 °F 1015.5 in Calm     76 % 0.0 in 0.0 W/m2 CLR
23:19 0.0 °F -3.6 °F 1015.5 in Calm     77 % 0.0 in 0.0 W/m2 CLR
23:24 0.0 °F -3.6 °F 1015.5 in Calm     77 % 0.0 in 0.0 W/m2 CLR
23:29 0.0 °F -3.7 °F 1015.5 in Calm     76 % 0.0 in 0.0 W/m2 CLR
23:34 0.0 °F -3.7 °F 1015.5 in Calm     76 % 0.0 in 0.0 W/m2 CLR
23:39 0.0 °F -3.9 °F 1015.5 in Calm     75 % 0.0 in 0.0 W/m2 CLR
23:44 0.0 °F -3.9 °F 1015.1 in Calm     75 % 0.0 in 0.0 W/m2 CLR
23:49 0.0 °F -3.9 °F 1015.5 in Calm     75 % 0.0 in 0.0 W/m2 CLR
23:54 0.0 °F -3.9 °F 1015.1 in Calm     75 % 0.0 in 0.0 W/m2 CLR
23:59 0.0 °F -3.9 °F 1015.1 in Calm     75 % 0.0 in 0.0 W/m2 CLR
Lo Temps de Massalio
Compliments of Weather Underground - 1 mb